sensor_id;sensor_type;location;lat;lon;timestamp;P1;durP1;ratioP1;P2;durP2;ratioP2
76986;SDS011;65922;50.086;8.598;2023-05-23T00:00:14;19.3;;;34.5;;
76986;SDS011;65922;50.086;8.598;2023-05-23T00:01:13;19.6;;;38.2;;
76986;SDS011;65922;50.086;8.598;2023-05-23T00:02:13;20.2;;;40.8;;
76986;SDS011;65922;50.086;8.598;2023-05-23T00:03:13;20.1;;;39.3;;
76986;SDS011;65922;50.086;8.598;2023-05-23T00:04:13;18.1;;;33.7;;
76986;SDS011;65922;50.086;8.598;2023-05-23T00:05:13;19.1;;;35.7;;
76986;SDS011;65922;50.086;8.598;2023-05-23T00:06:13;21.2;;;34.6;;
76986;SDS011;65922;50.086;8.598;2023-05-23T00:07:14;20.5;;;34.8;;
76986;SDS011;65922;50.086;8.598;2023-05-23T00:08:13;19.7;;;32.6;;
76986;SDS011;65922;50.086;8.598;2023-05-23T00:09:13;20.1;;;32.8;;
76986;SDS011;65922;50.086;8.598;2023-05-23T00:10:13;21.8;;;35.9;;
76986;SDS011;65922;50.086;8.598;2023-05-23T00:11:13;22.3;;;39.6;;
76986;SDS011;65922;50.086;8.598;2023-05-23T00:12:13;21.4;;;41.8;;
76986;SDS011;65922;50.086;8.598;2023-05-23T00:13:13;20.9;;;36;;
76986;SDS011;65922;50.086;8.598;2023-05-23T00:14:14;21.2;;;36.5;;
76986;SDS011;65922;50.086;8.598;2023-05-23T00:15:13;21.9;;;36.9;;
76986;SDS011;65922;50.086;8.598;2023-05-23T00:16:13;21.1;;;38.1;;
76986;SDS011;65922;50.086;8.598;2023-05-23T00:17:13;22.7;;;40.3;;
76986;SDS011;65922;50.086;8.598;2023-05-23T00:18:13;18.5;;;33.7;;
76986;SDS011;65922;50.086;8.598;2023-05-23T00:19:14;19.5;;;32.6;;
76986;SDS011;65922;50.086;8.598;2023-05-23T00:20:13;20.4;;;31.6;;
76986;SDS011;65922;50.086;8.598;2023-05-23T00:21:13;20;;;38.3;;
76986;SDS011;65922;50.086;8.598;2023-05-23T00:22:13;20.6;;;37.8;;
76986;SDS011;65922;50.086;8.598;2023-05-23T00:23:13;21.2;;;35.6;;
76986;SDS011;65922;50.086;8.598;2023-05-23T00:24:13;21.4;;;33.9;;
76986;SDS011;65922;50.086;8.598;2023-05-23T00:25:13;16.9;;;31.3;;
76986;SDS011;65922;50.086;8.598;2023-05-23T00:26:13;21.7;;;39.3;;
76986;SDS011;65922;50.086;8.598;2023-05-23T00:27:13;23.2;;;38.4;;
76986;SDS011;65922;50.086;8.598;2023-05-23T00:28:13;22.6;;;36;;
76986;SDS011;65922;50.086;8.598;2023-05-23T00:29:13;20.3;;;37.7;;
76986;SDS011;65922;50.086;8.598;2023-05-23T00:30:13;18.2;;;31.4;;
76986;SDS011;65922;50.086;8.598;2023-05-23T00:31:13;22.3;;;33.1;;
76986;SDS011;65922;50.086;8.598;2023-05-23T00:32:13;20.9;;;31.2;;
76986;SDS011;65922;50.086;8.598;2023-05-23T00:33:13;21.1;;;33.6;;
76986;SDS011;65922;50.086;8.598;2023-05-23T00:34:14;19.7;;;31.6;;
76986;SDS011;65922;50.086;8.598;2023-05-23T00:35:13;19.7;;;34.5;;
76986;SDS011;65922;50.086;8.598;2023-05-23T00:36:13;20.7;;;35.8;;
76986;SDS011;65922;50.086;8.598;2023-05-23T00:37:13;18.6;;;33;;
76986;SDS011;65922;50.086;8.598;2023-05-23T00:38:13;18.9;;;32.9;;
76986;SDS011;65922;50.086;8.598;2023-05-23T00:39:13;19.1;;;32.7;;
76986;SDS011;65922;50.086;8.598;2023-05-23T00:40:13;20.1;;;33.8;;
76986;SDS011;65922;50.086;8.598;2023-05-23T00:41:13;22;;;33.4;;
76986;SDS011;65922;50.086;8.598;2023-05-23T00:42:13;21.5;;;34;;
76986;SDS011;65922;50.086;8.598;2023-05-23T00:43:13;21.9;;;38.4;;
76986;SDS011;65922;50.086;8.598;2023-05-23T00:44:13;17.6;;;28.7;;
76986;SDS011;65922;50.086;8.598;2023-05-23T00:45:14;19.2;;;28.2;;
76986;SDS011;65922;50.086;8.598;2023-05-23T00:46:13;17.9;;;36.6;;
76986;SDS011;65922;50.086;8.598;2023-05-23T00:47:13;16.1;;;31.5;;
76986;SDS011;65922;50.086;8.598;2023-05-23T00:48:13;16.6;;;28.3;;
76986;SDS011;65922;50.086;8.598;2023-05-23T00:49:13;18.1;;;31.6;;
76986;SDS011;65922;50.086;8.598;2023-05-23T00:50:14;17.5;;;26.8;;
76986;SDS011;65922;50.086;8.598;2023-05-23T00:51:13;16.8;;;28.3;;
76986;SDS011;65922;50.086;8.598;2023-05-23T00:52:13;18.1;;;26.9;;
76986;SDS011;65922;50.086;8.598;2023-05-23T00:53:13;20;;;30.2;;
76986;SDS011;65922;50.086;8.598;2023-05-23T00:54:13;18.5;;;33.2;;
76986;SDS011;65922;50.086;8.598;2023-05-23T00:55:13;16.4;;;26.2;;
76986;SDS011;65922;50.086;8.598;2023-05-23T00:56:13;15.7;;;24.7;;
76986;SDS011;65922;50.086;8.598;2023-05-23T00:57:13;16.3;;;31.7;;
76986;SDS011;65922;50.086;8.598;2023-05-23T00:58:13;15.8;;;21.8;;
76986;SDS011;65922;50.086;8.598;2023-05-23T00:59:13;23.2;;;28.6;;
76986;SDS011;65922;50.086;8.598;2023-05-23T01:00:14;15.4;;;24.9;;
76986;SDS011;65922;50.086;8.598;2023-05-23T01:01:13;15.8;;;26.6;;
76986;SDS011;65922;50.086;8.598;2023-05-23T01:02:13;16.3;;;24.4;;
76986;SDS011;65922;50.086;8.598;2023-05-23T01:03:13;14.8;;;22.3;;
76986;SDS011;65922;50.086;8.598;2023-05-23T01:04:13;14.7;;;22.3;;
76986;SDS011;65922;50.086;8.598;2023-05-23T01:05:14;15.2;;;26.7;;
76986;SDS011;65922;50.086;8.598;2023-05-23T01:06:13;14.8;;;19.9;;
76986;SDS011;65922;50.086;8.598;2023-05-23T01:07:13;15.8;;;23;;
76986;SDS011;65922;50.086;8.598;2023-05-23T01:08:13;13.9;;;21.1;;
76986;SDS011;65922;50.086;8.598;2023-05-23T01:09:14;13.9;;;24.7;;
76986;SDS011;65922;50.086;8.598;2023-05-23T01:10:14;14.6;;;23.2;;
76986;SDS011;65922;50.086;8.598;2023-05-23T01:11:22;15.9;;;23.3;;
76986;SDS011;65922;50.086;8.598;2023-05-23T01:12:16;14.9;;;22.8;;
76986;SDS011;65922;50.086;8.598;2023-05-23T01:13:16;14;;;22.7;;
76986;SDS011;65922;50.086;8.598;2023-05-23T01:14:14;14.8;;;21.4;;
76986;SDS011;65922;50.086;8.598;2023-05-23T01:15:14;12.9;;;18.9;;
76986;SDS011;65922;50.086;8.598;2023-05-23T01:16:15;12.6;;;20;;
76986;SDS011;65922;50.086;8.598;2023-05-23T01:17:14;15.8;;;24.9;;
76986;SDS011;65922;50.086;8.598;2023-05-23T01:18:15;16.1;;;27.5;;
76986;SDS011;65922;50.086;8.598;2023-05-23T01:19:19;16.1;;;21.4;;
76986;SDS011;65922;50.086;8.598;2023-05-23T01:20:15;15;;;23.6;;
76986;SDS011;65922;50.086;8.598;2023-05-23T01:21:15;15.1;;;21.1;;
76986;SDS011;65922;50.086;8.598;2023-05-23T01:22:15;17.8;;;24.6;;
76986;SDS011;65922;50.086;8.598;2023-05-23T01:24:20;15.5;;;23.4;;
76986;SDS011;65922;50.086;8.598;2023-05-23T01:25:19;13.1;;;24.6;;
76986;SDS011;65922;50.086;8.598;2023-05-23T01:26:17;12.6;;;20.5;;
76986;SDS011;65922;50.086;8.598;2023-05-23T01:27:16;13;;;18.3;;
76986;SDS011;65922;50.086;8.598;2023-05-23T01:28:14;12.4;;;23.6;;
76986;SDS011;65922;50.086;8.598;2023-05-23T01:29:16;14.4;;;20.8;;
76986;SDS011;65922;50.086;8.598;2023-05-23T01:30:13;13.9;;;20.4;;
76986;SDS011;65922;50.086;8.598;2023-05-23T01:31:13;13.5;;;19.3;;
76986;SDS011;65922;50.086;8.598;2023-05-23T01:32:14;12.7;;;20;;
76986;SDS011;65922;50.086;8.598;2023-05-23T01:33:14;13.9;;;20.5;;
76986;SDS011;65922;50.086;8.598;2023-05-23T01:34:13;15;;;24.8;;
76986;SDS011;65922;50.086;8.598;2023-05-23T01:35:14;13.8;;;18.7;;
76986;SDS011;65922;50.086;8.598;2023-05-23T01:36:19;15;;;20.5;;
76986;SDS011;65922;50.086;8.598;2023-05-23T01:37:13;14.5;;;17.8;;
76986;SDS011;65922;50.086;8.598;2023-05-23T01:38:13;15.9;;;21.9;;
76986;SDS011;65922;50.086;8.598;2023-05-23T01:39:13;12.1;;;16.7;;
76986;SDS011;65922;50.086;8.598;2023-05-23T01:40:15;11.8;;;17.6;;
76986;SDS011;65922;50.086;8.598;2023-05-23T01:41:13;15.7;;;23.3;;
76986;SDS011;65922;50.086;8.598;2023-05-23T01:42:13;16.5;;;27.5;;
76986;SDS011;65922;50.086;8.598;2023-05-23T01:43:13;12.9;;;22.5;;
76986;SDS011;65922;50.086;8.598;2023-05-23T01:44:13;14.8;;;19.7;;
76986;SDS011;65922;50.086;8.598;2023-05-23T01:45:13;12;;;16;;
76986;SDS011;65922;50.086;8.598;2023-05-23T01:46:13;12.3;;;19.6;;
76986;SDS011;65922;50.086;8.598;2023-05-23T01:47:13;13.6;;;19.5;;
76986;SDS011;65922;50.086;8.598;2023-05-23T01:48:13;15.4;;;22.2;;
76986;SDS011;65922;50.086;8.598;2023-05-23T01:49:13;14.3;;;21.4;;
76986;SDS011;65922;50.086;8.598;2023-05-23T01:50:13;11.7;;;15.1;;
76986;SDS011;65922;50.086;8.598;2023-05-23T01:51:13;13.5;;;20.3;;
76986;SDS011;65922;50.086;8.598;2023-05-23T01:52:13;13.5;;;20.3;;
76986;SDS011;65922;50.086;8.598;2023-05-23T01:53:14;16.5;;;24.6;;
76986;SDS011;65922;50.086;8.598;2023-05-23T01:54:14;13.1;;;20.1;;
76986;SDS011;65922;50.086;8.598;2023-05-23T01:55:15;13.2;;;17.8;;
76986;SDS011;65922;50.086;8.598;2023-05-23T01:56:13;12.6;;;17.6;;
76986;SDS011;65922;50.086;8.598;2023-05-23T01:57:13;14.6;;;21.8;;
76986;SDS011;65922;50.086;8.598;2023-05-23T01:58:13;12.8;;;19.8;;
76986;SDS011;65922;50.086;8.598;2023-05-23T01:59:13;14.2;;;21.6;;
76986;SDS011;65922;50.086;8.598;2023-05-23T02:00:14;15.5;;;21.6;;
76986;SDS011;65922;50.086;8.598;2023-05-23T02:01:13;17.4;;;21.8;;
76986;SDS011;65922;50.086;8.598;2023-05-23T02:02:13;17;;;21.2;;
76986;SDS011;65922;50.086;8.598;2023-05-23T02:03:13;14.4;;;18.5;;
76986;SDS011;65922;50.086;8.598;2023-05-23T02:04:13;15.6;;;21.8;;
76986;SDS011;65922;50.086;8.598;2023-05-23T02:05:13;14.2;;;20.8;;
76986;SDS011;65922;50.086;8.598;2023-05-23T02:06:13;13.5;;;19.4;;
76986;SDS011;65922;50.086;8.598;2023-05-23T02:07:15;14.1;;;21.5;;
76986;SDS011;65922;50.086;8.598;2023-05-23T02:08:13;13.7;;;20.8;;
76986;SDS011;65922;50.086;8.598;2023-05-23T02:09:13;12.1;;;18.2;;
76986;SDS011;65922;50.086;8.598;2023-05-23T02:10:13;12.7;;;20.7;;
76986;SDS011;65922;50.086;8.598;2023-05-23T02:11:15;13.5;;;19;;
76986;SDS011;65922;50.086;8.598;2023-05-23T02:12:13;14.8;;;20.1;;
76986;SDS011;65922;50.086;8.598;2023-05-23T02:13:13;16.2;;;23.3;;
76986;SDS011;65922;50.086;8.598;2023-05-23T02:14:13;14.9;;;21.3;;
76986;SDS011;65922;50.086;8.598;2023-05-23T02:15:13;14.4;;;19.3;;
76986;SDS011;65922;50.086;8.598;2023-05-23T02:16:13;14.4;;;21.1;;
76986;SDS011;65922;50.086;8.598;2023-05-23T02:17:13;15.5;;;24;;
76986;SDS011;65922;50.086;8.598;2023-05-23T02:18:13;13.6;;;23.5;;
76986;SDS011;65922;50.086;8.598;2023-05-23T02:19:13;13;;;21.7;;
76986;SDS011;65922;50.086;8.598;2023-05-23T02:20:13;15.2;;;21.6;;
76986;SDS011;65922;50.086;8.598;2023-05-23T02:21:13;13.4;;;16.7;;
76986;SDS011;65922;50.086;8.598;2023-05-23T02:22:13;14.2;;;19.2;;
76986;SDS011;65922;50.086;8.598;2023-05-23T02:23:13;14.6;;;22.8;;
76986;SDS011;65922;50.086;8.598;2023-05-23T02:24:13;13.4;;;21.2;;
76986;SDS011;65922;50.086;8.598;2023-05-23T02:25:14;14.4;;;22.5;;
76986;SDS011;65922;50.086;8.598;2023-05-23T02:26:13;15.4;;;22.6;;
76986;SDS011;65922;50.086;8.598;2023-05-23T02:27:13;15.9;;;22;;
76986;SDS011;65922;50.086;8.598;2023-05-23T02:28:13;15;;;20.7;;
76986;SDS011;65922;50.086;8.598;2023-05-23T02:29:14;12.5;;;20.4;;
76986;SDS011;65922;50.086;8.598;2023-05-23T02:30:13;17.7;;;23.7;;
76986;SDS011;65922;50.086;8.598;2023-05-23T02:31:14;14.8;;;21.7;;
76986;SDS011;65922;50.086;8.598;2023-05-23T02:32:14;13.8;;;19.2;;
76986;SDS011;65922;50.086;8.598;2023-05-23T02:33:13;13.2;;;18.8;;
76986;SDS011;65922;50.086;8.598;2023-05-23T02:34:13;14;;;19.4;;
76986;SDS011;65922;50.086;8.598;2023-05-23T02:35:13;15.2;;;22.3;;
76986;SDS011;65922;50.086;8.598;2023-05-23T02:36:13;13.2;;;20;;
76986;SDS011;65922;50.086;8.598;2023-05-23T02:37:13;12.8;;;18.2;;
76986;SDS011;65922;50.086;8.598;2023-05-23T02:38:13;14.6;;;21.9;;
76986;SDS011;65922;50.086;8.598;2023-05-23T02:39:13;13.5;;;19.2;;
76986;SDS011;65922;50.086;8.598;2023-05-23T02:40:13;11.2;;;19.1;;
76986;SDS011;65922;50.086;8.598;2023-05-23T02:41:13;16.6;;;23.4;;
76986;SDS011;65922;50.086;8.598;2023-05-23T02:42:13;15.1;;;21.6;;
76986;SDS011;65922;50.086;8.598;2023-05-23T02:43:13;15.1;;;31.8;;
76986;SDS011;65922;50.086;8.598;2023-05-23T02:44:13;14.6;;;24.8;;
76986;SDS011;65922;50.086;8.598;2023-05-23T02:45:13;13.9;;;19.8;;
76986;SDS011;65922;50.086;8.598;2023-05-23T02:46:13;15.6;;;19.6;;
76986;SDS011;65922;50.086;8.598;2023-05-23T02:47:13;14.4;;;19.6;;
76986;SDS011;65922;50.086;8.598;2023-05-23T02:48:13;13.2;;;20;;
76986;SDS011;65922;50.086;8.598;2023-05-23T02:49:13;13.5;;;17.8;;
76986;SDS011;65922;50.086;8.598;2023-05-23T02:50:13;12.6;;;17.1;;
76986;SDS011;65922;50.086;8.598;2023-05-23T02:51:13;12.8;;;17.9;;
76986;SDS011;65922;50.086;8.598;2023-05-23T02:52:13;14.2;;;23.1;;
76986;SDS011;65922;50.086;8.598;2023-05-23T02:53:13;12.9;;;16.8;;
76986;SDS011;65922;50.086;8.598;2023-05-23T02:54:13;14.5;;;20.5;;
76986;SDS011;65922;50.086;8.598;2023-05-23T02:55:13;14.7;;;17.9;;
76986;SDS011;65922;50.086;8.598;2023-05-23T02:56:14;12.1;;;15.5;;
76986;SDS011;65922;50.086;8.598;2023-05-23T02:57:13;12.2;;;19.2;;
76986;SDS011;65922;50.086;8.598;2023-05-23T02:58:13;10;;;14.5;;
76986;SDS011;65922;50.086;8.598;2023-05-23T02:59:15;15;;;19.9;;
76986;SDS011;65922;50.086;8.598;2023-05-23T03:00:14;11.3;;;16.3;;
76986;SDS011;65922;50.086;8.598;2023-05-23T03:01:13;11.2;;;17.7;;
76986;SDS011;65922;50.086;8.598;2023-05-23T03:02:13;11.1;;;16.1;;
76986;SDS011;65922;50.086;8.598;2023-05-23T03:03:13;10;;;18.3;;
76986;SDS011;65922;50.086;8.598;2023-05-23T03:04:13;10.9;;;15.4;;
76986;SDS011;65922;50.086;8.598;2023-05-23T03:05:13;10.4;;;16.3;;
76986;SDS011;65922;50.086;8.598;2023-05-23T03:06:13;10;;;12.9;;
76986;SDS011;65922;50.086;8.598;2023-05-23T03:07:13;11.4;;;18.3;;
76986;SDS011;65922;50.086;8.598;2023-05-23T03:08:13;11;;;18.2;;
76986;SDS011;65922;50.086;8.598;2023-05-23T03:09:14;11.8;;;14.3;;
76986;SDS011;65922;50.086;8.598;2023-05-23T03:10:13;9.7;;;12.3;;
76986;SDS011;65922;50.086;8.598;2023-05-23T03:11:13;11.2;;;15.6;;
76986;SDS011;65922;50.086;8.598;2023-05-23T03:12:13;10.3;;;13.4;;
76986;SDS011;65922;50.086;8.598;2023-05-23T03:13:13;9;;;15.6;;
76986;SDS011;65922;50.086;8.598;2023-05-23T03:14:13;12.2;;;15;;
76986;SDS011;65922;50.086;8.598;2023-05-23T03:15:13;9.3;;;13;;
76986;SDS011;65922;50.086;8.598;2023-05-23T03:16:13;10;;;15;;
76986;SDS011;65922;50.086;8.598;2023-05-23T03:17:13;12;;;14.1;;
76986;SDS011;65922;50.086;8.598;2023-05-23T03:18:13;8.1;;;11.4;;
76986;SDS011;65922;50.086;8.598;2023-05-23T03:19:13;10.4;;;16.9;;
76986;SDS011;65922;50.086;8.598;2023-05-23T03:20:13;9.4;;;12.4;;
76986;SDS011;65922;50.086;8.598;2023-05-23T03:21:13;9.5;;;15.1;;
76986;SDS011;65922;50.086;8.598;2023-05-23T03:22:16;9.9;;;15.2;;
76986;SDS011;65922;50.086;8.598;2023-05-23T03:23:13;8.8;;;15.4;;
76986;SDS011;65922;50.086;8.598;2023-05-23T03:24:15;7.9;;;13.3;;
76986;SDS011;65922;50.086;8.598;2023-05-23T03:25:14;6.7;;;8.4;;
76986;SDS011;65922;50.086;8.598;2023-05-23T03:26:14;8.3;;;12.9;;
76986;SDS011;65922;50.086;8.598;2023-05-23T03:27:13;8.9;;;15;;
76986;SDS011;65922;50.086;8.598;2023-05-23T03:28:13;8.5;;;9.8;;
76986;SDS011;65922;50.086;8.598;2023-05-23T03:29:13;10.4;;;12.7;;
76986;SDS011;65922;50.086;8.598;2023-05-23T03:30:13;8.2;;;11.1;;
76986;SDS011;65922;50.086;8.598;2023-05-23T03:31:13;8.8;;;11.3;;
76986;SDS011;65922;50.086;8.598;2023-05-23T03:32:13;7.9;;;16.9;;
76986;SDS011;65922;50.086;8.598;2023-05-23T03:33:13;8.8;;;11.4;;
76986;SDS011;65922;50.086;8.598;2023-05-23T03:34:13;5.9;;;9.8;;
76986;SDS011;65922;50.086;8.598;2023-05-23T03:35:13;7.3;;;11.2;;
76986;SDS011;65922;50.086;8.598;2023-05-23T03:36:13;9;;;11.2;;
76986;SDS011;65922;50.086;8.598;2023-05-23T03:37:13;6.5;;;8.8;;
76986;SDS011;65922;50.086;8.598;2023-05-23T03:38:13;6.3;;;8.1;;
76986;SDS011;65922;50.086;8.598;2023-05-23T03:39:13;6.8;;;9.9;;
76986;SDS011;65922;50.086;8.598;2023-05-23T03:40:13;7.2;;;12.6;;
76986;SDS011;65922;50.086;8.598;2023-05-23T03:41:13;6.9;;;9.5;;
76986;SDS011;65922;50.086;8.598;2023-05-23T03:42:13;5.6;;;7;;
76986;SDS011;65922;50.086;8.598;2023-05-23T03:43:13;6.6;;;8.8;;
76986;SDS011;65922;50.086;8.598;2023-05-23T03:44:13;7.6;;;10.2;;
76986;SDS011;65922;50.086;8.598;2023-05-23T03:45:13;5.1;;;10;;
76986;SDS011;65922;50.086;8.598;2023-05-23T03:46:14;5.6;;;7.1;;
76986;SDS011;65922;50.086;8.598;2023-05-23T03:47:13;5.7;;;12.2;;
76986;SDS011;65922;50.086;8.598;2023-05-23T03:48:13;5.3;;;9;;
76986;SDS011;65922;50.086;8.598;2023-05-23T03:49:13;7.3;;;10.3;;
76986;SDS011;65922;50.086;8.598;2023-05-23T03:50:13;7.6;;;10.9;;
76986;SDS011;65922;50.086;8.598;2023-05-23T03:51:13;4.5;;;7.9;;
76986;SDS011;65922;50.086;8.598;2023-05-23T03:52:13;5.5;;;7;;
76986;SDS011;65922;50.086;8.598;2023-05-23T03:53:13;6;;;9.7;;
76986;SDS011;65922;50.086;8.598;2023-05-23T03:54:13;8;;;10.2;;
76986;SDS011;65922;50.086;8.598;2023-05-23T03:55:13;4.9;;;8.2;;
76986;SDS011;65922;50.086;8.598;2023-05-23T03:56:13;8;;;12.2;;
76986;SDS011;65922;50.086;8.598;2023-05-23T03:57:13;9.1;;;12.5;;
76986;SDS011;65922;50.086;8.598;2023-05-23T03:58:13;2.4;;;6.3;;
76986;SDS011;65922;50.086;8.598;2023-05-23T03:59:13;9.3;;;12.2;;
76986;SDS011;65922;50.086;8.598;2023-05-23T04:00:14;9.7;;;14.5;;
76986;SDS011;65922;50.086;8.598;2023-05-23T04:01:13;8.3;;;13.5;;
76986;SDS011;65922;50.086;8.598;2023-05-23T04:02:13;7.4;;;12.8;;
76986;SDS011;65922;50.086;8.598;2023-05-23T04:03:14;7.7;;;14.8;;
76986;SDS011;65922;50.086;8.598;2023-05-23T04:04:13;10.1;;;16.5;;
76986;SDS011;65922;50.086;8.598;2023-05-23T04:05:13;10.1;;;12.7;;
76986;SDS011;65922;50.086;8.598;2023-05-23T04:06:13;8.9;;;14.1;;
76986;SDS011;65922;50.086;8.598;2023-05-23T04:07:13;9.6;;;11.7;;
76986;SDS011;65922;50.086;8.598;2023-05-23T04:08:14;10.1;;;13.6;;
76986;SDS011;65922;50.086;8.598;2023-05-23T04:09:13;8.6;;;14.8;;
76986;SDS011;65922;50.086;8.598;2023-05-23T04:10:13;7.4;;;14;;
76986;SDS011;65922;50.086;8.598;2023-05-23T04:11:13;8.3;;;13.8;;
76986;SDS011;65922;50.086;8.598;2023-05-23T04:12:13;9;;;15.1;;
76986;SDS011;65922;50.086;8.598;2023-05-23T04:13:13;9.5;;;13.8;;
76986;SDS011;65922;50.086;8.598;2023-05-23T04:14:13;9.8;;;14;;
76986;SDS011;65922;50.086;8.598;2023-05-23T04:15:13;7;;;13.9;;
76986;SDS011;65922;50.086;8.598;2023-05-23T04:16:13;8.4;;;13.9;;
76986;SDS011;65922;50.086;8.598;2023-05-23T04:17:13;10.4;;;13.3;;
76986;SDS011;65922;50.086;8.598;2023-05-23T04:18:13;12;;;17;;
76986;SDS011;65922;50.086;8.598;2023-05-23T04:19:13;6.9;;;10.9;;
76986;SDS011;65922;50.086;8.598;2023-05-23T04:20:13;9.6;;;18.7;;
76986;SDS011;65922;50.086;8.598;2023-05-23T04:21:13;9.5;;;10.9;;
76986;SDS011;65922;50.086;8.598;2023-05-23T04:22:13;8.9;;;11.9;;
76986;SDS011;65922;50.086;8.598;2023-05-23T04:23:13;4.9;;;7.7;;
76986;SDS011;65922;50.086;8.598;2023-05-23T04:24:13;9.6;;;14;;
76986;SDS011;65922;50.086;8.598;2023-05-23T04:25:13;10.8;;;13.9;;
76986;SDS011;65922;50.086;8.598;2023-05-23T04:26:13;6.9;;;10.2;;
76986;SDS011;65922;50.086;8.598;2023-05-23T04:27:13;11.1;;;14.4;;
76986;SDS011;65922;50.086;8.598;2023-05-23T04:28:13;9.8;;;13.9;;
76986;SDS011;65922;50.086;8.598;2023-05-23T04:29:13;8.6;;;10.6;;
76986;SDS011;65922;50.086;8.598;2023-05-23T04:30:13;8;;;15.7;;
76986;SDS011;65922;50.086;8.598;2023-05-23T04:31:13;9.3;;;11.4;;
76986;SDS011;65922;50.086;8.598;2023-05-23T04:32:14;9.1;;;13.4;;
76986;SDS011;65922;50.086;8.598;2023-05-23T04:33:13;9.7;;;13.4;;
76986;SDS011;65922;50.086;8.598;2023-05-23T04:34:13;6.5;;;9.4;;
76986;SDS011;65922;50.086;8.598;2023-05-23T04:35:13;7.3;;;13.7;;
76986;SDS011;65922;50.086;8.598;2023-05-23T04:36:13;8.3;;;11.7;;
76986;SDS011;65922;50.086;8.598;2023-05-23T04:37:13;9.6;;;11.4;;
76986;SDS011;65922;50.086;8.598;2023-05-23T04:38:13;11;;;13.4;;
76986;SDS011;65922;50.086;8.598;2023-05-23T04:39:20;10;;;11.3;;
76986;SDS011;65922;50.086;8.598;2023-05-23T04:40:13;8.4;;;11;;
76986;SDS011;65922;50.086;8.598;2023-05-23T04:41:13;5.9;;;9.2;;
76986;SDS011;65922;50.086;8.598;2023-05-23T04:42:13;11.2;;;13.6;;
76986;SDS011;65922;50.086;8.598;2023-05-23T04:43:13;8.7;;;12;;
76986;SDS011;65922;50.086;8.598;2023-05-23T04:44:13;5.4;;;10;;
76986;SDS011;65922;50.086;8.598;2023-05-23T04:45:13;8.7;;;15.8;;
76986;SDS011;65922;50.086;8.598;2023-05-23T04:46:13;9.1;;;12.8;;
76986;SDS011;65922;50.086;8.598;2023-05-23T04:47:13;5.9;;;8.6;;
76986;SDS011;65922;50.086;8.598;2023-05-23T04:48:13;7.2;;;12.9;;
76986;SDS011;65922;50.086;8.598;2023-05-23T04:49:13;12.7;;;16.9;;
76986;SDS011;65922;50.086;8.598;2023-05-23T04:50:13;10.3;;;14;;
76986;SDS011;65922;50.086;8.598;2023-05-23T04:51:13;8.9;;;15.4;;
76986;SDS011;65922;50.086;8.598;2023-05-23T04:52:13;8;;;17.4;;
76986;SDS011;65922;50.086;8.598;2023-05-23T04:53:13;8;;;12.1;;
76986;SDS011;65922;50.086;8.598;2023-05-23T04:54:13;8;;;15.2;;
76986;SDS011;65922;50.086;8.598;2023-05-23T04:55:14;8.9;;;11.4;;
76986;SDS011;65922;50.086;8.598;2023-05-23T04:56:14;10.7;;;14.4;;
76986;SDS011;65922;50.086;8.598;2023-05-23T04:57:13;12.2;;;14.9;;
76986;SDS011;65922;50.086;8.598;2023-05-23T04:58:14;10.3;;;18.1;;
76986;SDS011;65922;50.086;8.598;2023-05-23T04:59:13;10.2;;;13.9;;
76986;SDS011;65922;50.086;8.598;2023-05-23T05:00:14;13.5;;;15.1;;
76986;SDS011;65922;50.086;8.598;2023-05-23T05:01:13;8.5;;;13.5;;
76986;SDS011;65922;50.086;8.598;2023-05-23T05:02:13;7.4;;;10.4;;
76986;SDS011;65922;50.086;8.598;2023-05-23T05:03:13;9.8;;;12.7;;
76986;SDS011;65922;50.086;8.598;2023-05-23T05:04:14;9;;;12.2;;
76986;SDS011;65922;50.086;8.598;2023-05-23T05:05:13;5.7;;;8.8;;
76986;SDS011;65922;50.086;8.598;2023-05-23T05:06:14;9.4;;;14.6;;
76986;SDS011;65922;50.086;8.598;2023-05-23T05:07:13;10.5;;;14.2;;
76986;SDS011;65922;50.086;8.598;2023-05-23T05:08:13;10.6;;;16.2;;
76986;SDS011;65922;50.086;8.598;2023-05-23T05:09:13;9;;;16.7;;
76986;SDS011;65922;50.086;8.598;2023-05-23T05:10:13;11.3;;;14.3;;
76986;SDS011;65922;50.086;8.598;2023-05-23T05:11:13;10.1;;;16.5;;
76986;SDS011;65922;50.086;8.598;2023-05-23T05:12:13;9.9;;;11.8;;
76986;SDS011;65922;50.086;8.598;2023-05-23T05:13:13;9.6;;;17.7;;
76986;SDS011;65922;50.086;8.598;2023-05-23T05:14:13;9.5;;;16.6;;
76986;SDS011;65922;50.086;8.598;2023-05-23T05:15:14;9.6;;;14.3;;
76986;SDS011;65922;50.086;8.598;2023-05-23T05:16:13;7;;;10.7;;
76986;SDS011;65922;50.086;8.598;2023-05-23T05:17:13;14.2;;;15.7;;
76986;SDS011;65922;50.086;8.598;2023-05-23T05:18:13;9.5;;;15.4;;
76986;SDS011;65922;50.086;8.598;2023-05-23T05:19:13;10.4;;;15.5;;
76986;SDS011;65922;50.086;8.598;2023-05-23T05:20:13;5.3;;;8.3;;
76986;SDS011;65922;50.086;8.598;2023-05-23T05:21:13;9.2;;;13;;
76986;SDS011;65922;50.086;8.598;2023-05-23T05:22:13;11;;;15;;
76986;SDS011;65922;50.086;8.598;2023-05-23T05:23:13;8.7;;;14.6;;
76986;SDS011;65922;50.086;8.598;2023-05-23T05:24:13;8.7;;;12.8;;
76986;SDS011;65922;50.086;8.598;2023-05-23T05:25:13;7.9;;;11.4;;
76986;SDS011;65922;50.086;8.598;2023-05-23T05:26:13;10.2;;;12.7;;
76986;SDS011;65922;50.086;8.598;2023-05-23T05:27:13;8.3;;;12.4;;
76986;SDS011;65922;50.086;8.598;2023-05-23T05:28:13;8;;;10.8;;
76986;SDS011;65922;50.086;8.598;2023-05-23T05:29:13;8.6;;;12.8;;
76986;SDS011;65922;50.086;8.598;2023-05-23T05:30:13;9.5;;;13.4;;
76986;SDS011;65922;50.086;8.598;2023-05-23T05:31:14;7.9;;;10.8;;
76986;SDS011;65922;50.086;8.598;2023-05-23T05:32:13;7.1;;;12.7;;
76986;SDS011;65922;50.086;8.598;2023-05-23T05:33:13;8.1;;;11.1;;
76986;SDS011;65922;50.086;8.598;2023-05-23T05:34:13;7.9;;;12.9;;
76986;SDS011;65922;50.086;8.598;2023-05-23T05:35:13;7.7;;;9.3;;
76986;SDS011;65922;50.086;8.598;2023-05-23T05:36:13;5.5;;;9.1;;
76986;SDS011;65922;50.086;8.598;2023-05-23T05:37:13;8.5;;;12.2;;
76986;SDS011;65922;50.086;8.598;2023-05-23T05:38:13;9.3;;;13.8;;
76986;SDS011;65922;50.086;8.598;2023-05-23T05:39:13;11.2;;;13;;
76986;SDS011;65922;50.086;8.598;2023-05-23T05:40:14;8.3;;;11.5;;
76986;SDS011;65922;50.086;8.598;2023-05-23T05:41:13;6.4;;;10.5;;
76986;SDS011;65922;50.086;8.598;2023-05-23T05:42:13;7.7;;;9.6;;
76986;SDS011;65922;50.086;8.598;2023-05-23T05:43:13;10.2;;;12.8;;
76986;SDS011;65922;50.086;8.598;2023-05-23T05:44:13;7.5;;;10.2;;
76986;SDS011;65922;50.086;8.598;2023-05-23T05:45:13;6.6;;;9.5;;
76986;SDS011;65922;50.086;8.598;2023-05-23T05:46:13;8.6;;;11.9;;
76986;SDS011;65922;50.086;8.598;2023-05-23T05:47:13;9.6;;;13.9;;
76986;SDS011;65922;50.086;8.598;2023-05-23T05:48:13;7.5;;;11.9;;
76986;SDS011;65922;50.086;8.598;2023-05-23T05:49:13;10.3;;;12;;
76986;SDS011;65922;50.086;8.598;2023-05-23T05:50:13;8.4;;;11.2;;
76986;SDS011;65922;50.086;8.598;2023-05-23T05:51:13;6.9;;;9.8;;
76986;SDS011;65922;50.086;8.598;2023-05-23T05:52:13;8.2;;;12.9;;
76986;SDS011;65922;50.086;8.598;2023-05-23T05:53:13;8.3;;;10.4;;
76986;SDS011;65922;50.086;8.598;2023-05-23T05:54:13;7;;;8.1;;
76986;SDS011;65922;50.086;8.598;2023-05-23T05:55:13;9;;;13.8;;
76986;SDS011;65922;50.086;8.598;2023-05-23T05:56:13;6.5;;;9.9;;
76986;SDS011;65922;50.086;8.598;2023-05-23T05:57:13;7;;;9.6;;
76986;SDS011;65922;50.086;8.598;2023-05-23T05:58:13;8.6;;;10.4;;
76986;SDS011;65922;50.086;8.598;2023-05-23T05:59:13;9.2;;;10.4;;
76986;SDS011;65922;50.086;8.598;2023-05-23T06:00:14;4.9;;;8.1;;
76986;SDS011;65922;50.086;8.598;2023-05-23T06:01:13;7;;;10;;
76986;SDS011;65922;50.086;8.598;2023-05-23T06:02:14;6.7;;;8.7;;
76986;SDS011;65922;50.086;8.598;2023-05-23T06:03:13;6.1;;;10.2;;
76986;SDS011;65922;50.086;8.598;2023-05-23T06:04:13;6.1;;;10.3;;
76986;SDS011;65922;50.086;8.598;2023-05-23T06:05:13;8.3;;;9.7;;
76986;SDS011;65922;50.086;8.598;2023-05-23T06:06:13;6.5;;;10.8;;
76986;SDS011;65922;50.086;8.598;2023-05-23T06:07:13;6.4;;;9.1;;